Time;durP1;ratioP1;P1;durP2;ratioP2;P2;SDS_P1;SDS_P2;PMS_P1;PMS_P2;Temp;Humidity;BMP_temperature;BMP_pressure;BME280_temperature;BME280_humidity;BME280_pressure;Samples;Min_cycle;Max_cycle;Signal;HPM_P1;HPM_P2
2022/07/13 00:41:40;;;;;;;7.20;3.70;;;384.90;2329.60;;;;;;4788125;30;20038;-82
2022/07/13 03:23:02;;;;;;;;;;;;;;;;;;;;;
2022/07/13 03:33:53;;;;;;;5.90;3.80;;;359.00;2329.60;;;;;;4771280;30;20073;-85
2022/07/13 04:06:52;;;;;;;6.90;3.55;;;359.00;2329.60;;;;;;4716979;30;20041;-82
2022/07/13 04:09:18;;;;;;;7.53;3.78;;;359.10;2329.60;;;;;;4823981;29;20045;-82
2022/07/13 04:11:44;;;;;;;7.22;3.53;;;359.10;2329.60;;;;;;4864104;29;20087;-83
2022/07/13 04:14:09;;;;;;;9.27;4.00;;;359.00;2329.60;;;;;;4974560;28;20379;-82
2022/07/13 04:16:35;;;;;;;9.82;4.38;;;359.10;2329.60;;;;;;4978639;28;20030;-82
2022/07/13 04:19:01;;;;;;;5.75;3.75;;;359.30;2329.60;;;;;;4978655;28;20038;-81
2022/07/13 04:21:27;;;;;;;6.55;4.10;;;384.00;2329.60;;;;;;4978649;28;20034;-83
2022/07/13 04:23:53;;;;;;;10.95;3.60;;;384.00;2329.60;;;;;;4978550;28;20463;-83
2022/07/13 04:26:19;;;;;;;6.60;3.47;;;384.10;2329.60;;;;;;4980889;28;20112;-84
2022/07/13 04:28:45;;;;;;;7.55;3.60;;;384.10;2329.60;;;;;;4995045;28;20031;-82
2022/07/13 04:31:11;;;;;;;6.35;3.47;;;384.00;2329.60;;;;;;4994705;28;20023;-85
2022/07/13 04:33:37;;;;;;;10.90;4.30;;;384.10;2329.60;;;;;;4994729;28;20030;-83
2022/07/13 04:36:05;;;;;;;8.32;3.78;;;384.20;2329.60;;;;;;4994454;28;20031;-83
2022/07/13 04:38:31;;;;;;;6.25;3.28;;;384.10;2329.60;;;;;;4994445;28;20086;-84
2022/07/13 04:40:57;;;;;;;6.32;3.58;;;384.10;2329.60;;;;;;4994500;28;20026;-85
2022/07/13 04:43:23;;;;;;;6.43;3.78;;;384.10;2329.60;;;;;;4994285;28;20037;-84
2022/07/13 04:45:49;;;;;;;5.88;3.75;;;384.00;2329.60;;;;;;4994305;28;20058;-84
2022/07/13 04:48:15;;;;;;;8.20;3.53;;;384.30;2329.60;;;;;;4994090;28;20026;-83
2022/07/13 04:50:40;;;;;;;8.25;3.92;;;384.30;2329.60;;;;;;4994457;28;20027;-84
2022/07/13 04:53:06;;;;;;;6.07;3.65;;;384.30;2329.60;;;;;;5008757;28;20402;-82
2022/07/13 04:55:32;;;;;;;6.53;3.65;;;384.30;2329.60;;;;;;5013807;28;20068;-83
2022/07/13 04:57:58;;;;;;;6.15;3.65;;;384.30;2329.60;;;;;;5014009;28;20130;-82
2022/07/13 05:00:24;;;;;;;8.00;3.67;;;384.40;2329.60;;;;;;5013865;28;20129;-85
2022/07/13 05:02:50;;;;;;;9.75;4.18;;;384.60;2329.60;;;;;;5013619;28;20037;-83
2022/07/13 05:05:15;;;;;;;8.75;3.78;;;384.40;2329.60;;;;;;5013811;28;20030;-83
2022/07/13 05:07:41;;;;;;;7.70;3.75;;;384.40;2329.60;;;;;;5013597;28;20084;-81
2022/07/13 05:10:08;;;;;;;8.85;3.40;;;384.60;2329.60;;;;;;5013361;28;20034;-83
2022/07/13 05:12:42;;;;;;;7.35;3.80;;;384.70;2329.60;;;;;;5014689;28;20177;-84
2022/07/13 05:15:09;;;;;;;8.38;3.30;;;384.90;2329.60;;;;;;5015726;28;20028;-82
2022/07/13 05:17:40;;;;;;;10.55;4.30;;;384.90;2329.60;;;;;;5014962;28;20052;-83
2022/07/13 05:20:07;;;;;;;10.85;3.67;;;409.60;2355.20;;;;;;5015171;28;20111;-82
2022/07/13 05:22:36;;;;;;;6.63;3.47;;;409.70;2355.20;;;;;;5014927;28;20057;-82
2022/07/13 05:25:17;;;;;;;15.15;3.90;;;409.70;2355.20;;;;;;5014971;28;20119;-83
2022/07/13 05:27:43;;;;;;;8.05;3.22;;;384.40;2329.60;;;;;;5015629;28;20076;-82
2022/07/13 05:30:12;;;;;;;6.35;3.67;;;409.90;2355.20;;;;;;5016925;28;20509;-82
2022/07/13 05:33:18;;;;;;;8.57;3.67;;;410.00;2355.20;;;;;;5014289;28;20115;-83
2022/07/13 05:35:49;;;;;;;10.30;3.28;;;409.80;2355.20;;;;;;5016398;28;20053;-86
2022/07/13 05:38:19;;;;;;;8.10;3.83;;;409.80;2355.20;;;;;;5015111;28;20022;-86
2022/07/13 05:41:11;;;;;;;7.15;4.50;;;410.00;2355.20;;;;;;5015961;28;20030;-86
2022/07/13 05:47:22;;;;;;;36.65;20.05;;;410.40;2355.20;;;;;;4954784;29;20031;-87
2022/07/13 05:49:50;;;;;;;27.23;16.13;;;435.20;2355.20;;;;;;5014490;28;20033;-87
2022/07/13 05:52:19;;;;;;;23.67;13.82;;;435.30;2355.20;;;;;;5015329;28;20075;-85
2022/07/13 05:55:11;;;;;;;15.70;8.15;;;435.40;2355.20;;;;;;5015168;28;20061;-89
2022/07/13 06:01:02;;;;;;;9.00;4.57;;;436.00;2355.20;;;;;;4999689;28;20026;-88
2022/07/13 06:04:38;;;;;;;15.43;5.15;;;436.10;2355.20;;;;;;5015440;28;20033;-86
2022/07/13 06:14:14;;;;;;;;;;;;;;;;;;;;;
2022/07/13 06:17:01;;;;;;;9.02;4.05;;;461.30;2380.80;;;;;;4954267;29;20019;-86
2022/07/13 06:23:23;;;;;;;7.75;4.20;;;461.20;2380.80;;;;;;5017158;28;20373;-87
2022/07/13 06:29:59;;;;;;;10.20;4.25;;;461.60;2380.80;;;;;;4935484;29;20080;-86
2022/07/13 06:37:09;;;;;;;13.48;4.60;;;486.60;2380.80;;;;;;4918390;29;20035;-86
2022/07/13 06:39:54;;;;;;;9.70;4.25;;;486.70;2380.80;;;;;;4910329;29;20044;-86
2022/07/13 06:47:01;;;;;;;8.73;4.70;;;487.00;2380.80;;;;;;4863000;29;20513;-87
2022/07/13 06:53:13;;;;;;;7.95;3.67;;;512.20;2380.80;;;;;;4844510;29;20058;-85
2022/07/13 06:56:33;;;;;;;8.60;3.00;;;512.40;2380.80;;;;;;4827148;29;20593;-85
2022/07/13 06:59:14;;;;;;;8.77;3.10;;;512.40;2380.80;;;;;;4873923;29;20051;-84
2022/07/13 07:08:54;;;;;;;5.70;2.58;;;537.80;2406.40;;;;;;4904681;28;20091;-84
2022/07/13 07:11:48;;;;;;;7.28;3.08;;;538.00;2406.40;;;;;;4999115;28;20037;-84
2022/07/13 07:14:58;;;;;;;7.43;2.65;;;538.30;2406.40;;;;;;4998931;28;20042;-85
2022/07/13 07:17:24;;;;;;;7.72;2.58;;;538.50;2406.40;;;;;;5009912;28;20045;-83
2022/07/13 07:19:54;;;;;;;3.47;1.80;;;538.50;2380.80;;;;;;4999828;28;20021;-83
2022/07/13 07:22:23;;;;;;;5.75;2.63;;;563.20;2380.80;;;;;;4999545;28;20022;-84
2022/07/13 07:24:53;;;;;;;5.32;1.83;;;563.20;2355.20;;;;;;4999526;28;20113;-84
2022/07/13 07:27:19;;;;;;;6.20;1.88;;;563.50;2329.60;;;;;;4999138;28;20032;-84
2022/07/13 07:29:46;;;;;;;4.95;2.33;;;563.50;2329.60;;;;;;5001998;28;20137;-86
2022/07/13 07:32:12;;;;;;;6.07;2.97;;;563.70;2329.60;;;;;;5015428;28;20036;-83
2022/07/13 07:34:38;;;;;;;5.10;2.70;;;563.90;2304.00;;;;;;5014261;28;20022;-83
2022/07/13 07:37:04;;;;;;;9.88;3.75;;;564.00;2304.00;;;;;;5015590;28;20125;-85
2022/07/13 07:39:29;;;;;;;4.45;1.95;;;588.80;2304.00;;;;;;5015607;28;20030;-86
2022/07/13 07:41:55;;;;;;;6.85;2.00;;;588.90;2252.80;;;;;;5015552;28;20026;-84
2022/07/13 07:44:22;;;;;;;3.90;2.17;;;588.80;2252.80;;;;;;5015035;28;20109;-85
2022/07/13 07:46:50;;;;;;;4.20;2.00;;;588.90;2252.80;;;;;;5015429;28;20030;-87
2022/07/13 07:49:16;;;;;;;5.68;1.90;;;589.10;2252.80;;;;;;5015116;28;20117;-87
2022/07/13 07:51:42;;;;;;;4.15;1.67;;;589.40;2227.20;;;;;;5015012;28;20130;-85
2022/07/13 07:54:08;;;;;;;6.38;1.83;;;589.40;2150.40;;;;;;5015146;28;20029;-86
2022/07/13 07:56:34;;;;;;;5.78;2.53;;;589.40;2150.40;;;;;;5015012;28;20068;-86
2022/07/13 07:59:00;;;;;;;7.10;1.92;;;589.60;2176.00;;;;;;5014890;28;20076;-86
2022/07/13 08:01:29;;;;;;;3.97;1.88;;;589.70;2099.20;;;;;;5015107;28;20030;-85
2022/07/13 08:04:01;;;;;;;4.78;1.80;;;589.70;2099.20;;;;;;5014749;28;20029;-87
2022/07/13 08:06:27;;;;;;;;;;;614.40;2099.20;;;;;;5015656;28;20177;-86
2022/07/13 08:08:53;;;;;;;5.18;1.65;;;614.70;2073.60;;;;;;5014929;28;19963;-85
2022/07/13 08:11:20;;;;;;;6.15;1.98;;;614.70;2048.00;;;;;;5014903;28;20022;-87
2022/07/13 08:13:46;;;;;;;4.10;1.83;;;614.80;2073.60;;;;;;5014379;28;20026;-83
2022/07/13 08:16:16;;;;;;;3.60;1.90;;;614.70;2099.20;;;;;;5014391;28;20026;-85
2022/07/13 08:18:43;;;;;;;4.45;1.65;;;614.50;2099.20;;;;;;5013930;28;20100;-83
2022/07/13 08:21:09;;;;;;;3.92;1.45;;;614.80;1996.80;;;;;;5014201;28;20018;-83
2022/07/13 08:23:54;;;;;;;5.55;1.75;;;614.90;1996.80;;;;;;5014383;28;20030;-84
2022/07/13 08:26:25;;;;;;;3.70;1.88;;;614.90;2022.40;;;;;;5013885;28;20367;-82
2022/07/13 08:28:52;;;;;;;4.43;1.63;;;;;;;;;;5014098;28;20029;-84
2022/07/13 08:31:20;;;;;;;4.10;1.70;;;;;;;;;;5013697;28;20050;-86
2022/07/13 08:39:24;;;;;;;6.55;1.90;;;640.60;1894.40;;;;;;5015187;28;20433;-88
2022/07/13 08:41:50;;;;;;;5.53;1.55;;;;;;;;;;5018901;28;20033;-85
2022/07/13 08:44:16;;;;;;;6.35;1.67;;;;;;;;;;5026489;28;20084;-87
2022/07/13 08:46:43;;;;;;;3.20;1.58;;;;;;;;;;5019351;28;20485;-88
2022/07/13 08:49:09;;;;;;;6.15;1.45;;;;;;;;;;5013733;28;20041;-82
2022/07/13 08:51:36;;;;;;;3.00;1.30;;;;;;;;;;5013932;28;20084;-84
2022/07/13 08:54:07;;;;;;;7.38;3.85;;;666.30;1843.20;;;;;;5013507;28;20026;-86
2022/07/13 08:56:33;;;;;;;5.35;1.83;;;666.30;1843.20;;;;;;5014153;28;20385;-85
2022/07/13 08:58:59;;;;;;;4.43;1.40;;;666.50;1766.40;;;;;;5013682;28;20029;-83
2022/07/13 09:01:26;;;;;;;3.63;1.50;;;666.30;1792.00;;;;;;5013561;28;20053;-82
2022/07/13 09:03:52;;;;;;;3.97;2.20;;;666.00;1792.00;;;;;;5013764;28;20025;-84
2022/07/13 09:06:58;;;;;;;4.35;1.38;;;665.70;1817.60;;;;;;5014165;28;20030;-83
2022/07/13 09:09:33;;;;;;;4.85;1.48;;;640.80;1792.00;;;;;;4919398;29;20032;-88
2022/07/13 09:12:16;;;;;;;3.00;1.48;;;640.80;1792.00;;;;;;4919424;29;20028;-85
2022/07/13 09:14:52;;;;;;;2.47;1.00;;;640.70;1792.00;;;;;;4980874;28;20030;-87
2022/07/13 09:17:48;;;;;;;5.07;1.50;;;640.50;1792.00;;;;;;5013772;28;20038;-87
2022/07/13 09:20:13;;;;;;;3.58;1.90;;;640.50;1766.40;;;;;;5014756;28;20022;-85
2022/07/13 09:22:53;;;;;;;5.57;1.40;;;640.20;1792.00;;;;;;5019670;28;20017;-86
2022/07/13 09:25:26;;;;;;;4.28;1.30;;;640.50;1740.80;;;;;;5018268;28;20038;-86
2022/07/13 09:27:52;;;;;;;4.95;2.47;;;640.90;1715.20;;;;;;5020419;28;20021;-85
2022/07/13 09:30:26;;;;;;;8.13;2.63;;;665.60;1766.40;;;;;;5020582;28;20572;-85
2022/07/13 09:32:58;;;;;;;4.63;1.77;;;640.90;1715.20;;;;;;5015773;28;20026;-90
2022/07/13 09:35:39;;;;;;;;;;;665.80;1715.20;;;;;;5014544;28;20359;-87
2022/07/13 09:38:04;;;;;;;7.97;4.35;;;665.90;1689.60;;;;;;5013231;28;20365;-85
2022/07/13 09:40:31;;;;;;;3.60;1.20;;;666.20;1740.80;;;;;;5013436;28;20033;-87
2022/07/13 09:48:26;;;;;;;4.88;1.67;;;666.30;1689.60;;;;;;5014303;28;20033;-86
2022/07/13 09:50:57;;;;;;;4.85;1.77;;;666.20;1689.60;;;;;;5012943;28;20093;-86
2022/07/13 09:53:37;;;;;;;4.25;2.00;;;666.20;1715.20;;;;;;5013287;28;20022;-82
2022/07/13 09:56:05;;;;;;;6.05;1.70;;;665.70;1715.20;;;;;;5012360;28;20041;-88
2022/07/13 09:58:34;;;;;;;3.90;1.25;;;640.90;1664.00;;;;;;5014951;28;20068;-84
2022/07/13 10:01:04;;;;;;;8.20;5.63;;;640.80;1689.60;;;;;;5017164;28;20022;-86
2022/07/13 10:03:31;;;;;;;6.05;3.70;;;640.60;1715.20;;;;;;5017518;28;20419;-85
2022/07/13 10:05:59;;;;;;;7.70;2.67;;;665.90;1740.80;;;;;;5017518;28;20236;-87
2022/07/13 10:08:25;;;;;;;6.03;1.85;;;666.50;1740.80;;;;;;5017108;28;20026;-84
2022/07/13 10:10:52;;;;;;;6.00;3.33;;;691.60;1715.20;;;;;;5017049;28;20049;-86
2022/07/13 10:13:19;;;;;;;5.50;2.60;;;691.50;1689.60;;;;;;5017124;28;20033;-85
2022/07/13 10:15:46;;;;;;;6.65;2.47;;;691.70;1715.20;;;;;;5005827;28;20394;-84
2022/07/13 10:18:21;;;;;;;7.90;3.85;;;691.70;1715.20;;;;;;4997306;28;20043;-85
2022/07/13 10:21:08;;;;;;;6.45;3.78;;;692.00;1664.00;;;;;;4997431;28;20030;-84
2022/07/13 10:23:37;;;;;;;6.03;2.60;;;691.40;1689.60;;;;;;4997079;28;20049;-82
2022/07/13 10:26:03;;;;;;;5.95;2.00;;;691.20;1740.80;;;;;;4997563;28;20035;-85
2022/07/13 10:28:29;;;;;;;5.22;1.80;;;691.50;1715.20;;;;;;4997666;28;20030;-84
2022/07/13 10:30:55;;;;;;;11.07;3.42;;;691.60;1664.00;;;;;;4997288;28;20105;-87
2022/07/13 10:33:24;;;;;;;3.47;2.03;;;716.80;1689.60;;;;;;4997460;28;20026;-84
2022/07/13 10:35:55;;;;;;;8.57;6.68;;;717.00;1664.00;;;;;;4997262;28;20022;-86
2022/07/13 10:38:26;;;;;;;9.23;4.20;;;717.50;1664.00;;;;;;4997028;28;20034;-85
2022/07/13 10:41:21;;;;;;;5.78;2.35;;;742.40;1664.00;;;;;;4997290;28;20493;-85
2022/07/13 10:43:55;;;;;;;3.45;1.58;;;742.50;1638.40;;;;;;4998191;28;20117;-83
2022/07/13 10:46:49;;;;;;;5.85;1.40;;;742.50;1638.40;;;;;;4996525;28;20026;-83
2022/07/13 10:49:30;;;;;;;8.05;1.50;;;742.90;1638.40;;;;;;4996144;28;20030;-82
2022/07/13 10:51:59;;;;;;;5.15;2.13;;;;;;;;;;4996251;28;20470;-81
2022/07/13 10:54:25;;;;;;;2.13;1.08;;;743.10;1587.20;;;;;;4995852;28;20463;-81
2022/07/13 10:57:10;;;;;;;7.68;2.20;;;;;;;;;;4996198;28;20022;-83
2022/07/13 10:59:46;;;;;;;4.07;1.60;;;;;;;;;;4996363;28;20030;-83
2022/07/13 11:02:47;;;;;;;6.85;1.42;;;768.20;1587.20;;;;;;4996289;28;20475;-82
2022/07/13 11:05:15;;;;;;;3.88;1.50;;;768.20;1587.20;;;;;;4996162;28;20023;-81
2022/07/13 11:07:43;;;;;;;6.40;3.58;;;;;;;;;;4995790;28;20390;-82
2022/07/13 11:10:28;;;;;;;5.63;1.95;;;743.00;1587.20;;;;;;4991987;28;20430;-82
2022/07/13 11:12:58;;;;;;;4.28;1.90;;;743.00;1638.40;;;;;;4999325;28;20030;-85
2022/07/13 11:15:25;;;;;;;6.65;1.75;;;;;;;;;;4999243;28;20149;-85
2022/07/13 11:17:54;;;;;;;4.13;2.10;;;;;;;;;;4998785;28;20034;-85
2022/07/13 11:20:21;;;;;;;3.63;1.50;;;;;;;;;;4999003;28;20018;-85
2022/07/13 11:25:55;;;;;;;5.65;1.52;;;;;;;;;;5016816;28;20037;-84
2022/07/13 11:28:21;;;;;;;5.72;1.40;;;;;;;;;;4999043;28;20355;-81
2022/07/13 11:30:53;;;;;;;3.17;1.50;;;;;;;;;;4984020;28;20073;-86
2022/07/13 11:33:20;;;;;;;5.22;1.48;;;;;;;;;;4979325;28;20021;-83
2022/07/13 11:35:49;;;;;;;3.65;1.58;;;;;;;;;;4979484;28;20022;-84
2022/07/13 11:38:16;;;;;;;4.18;1.30;;;;;;;;;;4979172;28;20034;-83
2022/07/13 11:40:42;;;;;;;4.70;1.80;;;;;;;;;;4979265;28;20532;-83
2022/07/13 11:43:09;;;;;;;6.20;1.83;;;;;;;;;;4979371;28;20145;-85
2022/07/13 11:45:35;;;;;;;6.55;1.67;;;;;;;;;;4979320;28;20022;-86
2022/07/13 11:48:02;;;;;;;3.72;1.75;;;;;;;;;;4979342;28;20049;-86
2022/07/13 11:50:58;;;;;;;4.75;1.88;;;;;;;;;;4981942;28;20050;-83
2022/07/13 11:53:28;;;;;;;3.33;1.35;;;;;;;;;;4964345;28;20041;-82
2022/07/13 11:55:57;;;;;;;4.10;1.95;;;;;;;;;;4980606;28;20131;-85
2022/07/13 11:58:25;;;;;;;4.50;1.33;;;;;;;;;;4978958;28;20037;-86
2022/07/13 12:00:52;;;;;;;5.03;2.15;;;;;;;;;;4978844;28;20470;-84
2022/07/13 12:03:24;;;;;;;5.72;2.47;;;;;;;;;;4978971;28;20089;-86
2022/07/13 12:05:52;;;;;;;3.15;1.40;;;;;;;;;;4978432;28;20034;-85
2022/07/13 12:08:18;;;;;;;2.22;1.10;;;;;;;;;;4978739;28;20045;-84
2022/07/13 12:10:44;;;;;;;3.25;1.15;;;;;;;;;;4978573;28;20033;-84
2022/07/13 12:13:11;;;;;;;4.18;1.02;;;;;;;;;;4978338;28;20367;-85
2022/07/13 12:15:38;;;;;;;3.22;1.20;;;;;;;;;;4978893;28;20034;-84
2022/07/13 12:18:05;;;;;;;3.08;1.27;;;742.80;1536.00;;;;;;4978937;28;20039;-85
2022/07/13 12:20:34;;;;;;;5.47;3.60;;;743.00;1484.80;;;;;;4978211;28;20031;-84
2022/07/13 12:23:00;;;;;;;8.98;2.60;;;;;;;;;;4978654;28;20026;-85
2022/07/13 12:25:33;;;;;;;4.28;2.00;;;793.90;1484.80;;;;;;4978752;28;20033;-87
2022/07/13 12:28:00;;;;;;;4.90;1.92;;;793.70;1484.80;;;;;;4978722;28;20356;-88
2022/07/13 12:30:27;;;;;;;2.90;1.30;;;768.40;1510.40;;;;;;4978589;28;20049;-88
2022/07/13 12:32:56;;;;;;;2.80;1.00;;;;;;;;;;4978429;28;20427;-85
2022/07/13 12:35:25;;;;;;;2.47;1.00;;;;;;;;;;4979062;28;20028;-86
2022/07/13 12:37:52;;;;;;;3.72;1.17;;;;;;;;;;4978354;28;20027;-86
2022/07/13 12:40:37;;;;;;;2.88;1.15;;;;;;;;;;4978606;28;20022;-86
2022/07/13 12:43:03;;;;;;;5.53;1.25;;;;;;;;;;4978476;28;20441;-82
2022/07/13 12:45:33;;;;;;;3.63;1.13;;;;;;;;;;4978252;28;20057;-84
2022/07/13 12:47:59;;;;;;;2.50;1.02;;;;;;;;;;4978212;28;20037;-84
2022/07/13 12:50:26;;;;;;;2.63;1.25;;;;;;;;;;4978337;28;20105;-86
2022/07/13 12:52:59;;;;;;;3.63;1.13;;;;;;;;;;4978668;28;20022;-86
2022/07/13 12:55:25;;;;;;;4.70;1.60;;;;;;;;;;4978197;28;20033;-85
2022/07/13 12:57:51;;;;;;;4.28;1.55;;;;;;;;;;4978419;28;20026;-85
2022/07/13 13:00:22;;;;;;;3.40;1.48;;;;;;;;;;4978015;28;20035;-85
2022/07/13 13:02:48;;;;;;;4.03;1.70;;;;;;;;;;4978274;28;20022;-85
2022/07/13 13:05:15;;;;;;;6.45;2.65;;;;;;;;;;4977981;28;20030;-85
2022/07/13 13:07:42;;;;;;;5.10;1.80;;;;;;;;;;4978129;28;20470;-83
2022/07/13 13:10:09;;;;;;;4.32;1.77;;;793.70;1536.00;;;;;;4977915;28;20088;-88
2022/07/13 13:12:35;;;;;;;2.58;1.27;;;794.10;1484.80;;;;;;4978347;28;20034;-86
2022/07/13 13:15:03;;;;;;;2.97;1.27;;;793.90;1484.80;;;;;;4978967;28;20125;-86
2022/07/13 13:17:30;;;;;;;3.53;1.60;;;768.90;1459.20;;;;;;4978794;28;20022;-89
2022/07/13 13:19:56;;;;;;;4.75;1.67;;;768.70;1459.20;;;;;;4978927;28;20050;-88
2022/07/13 13:22:22;;;;;;;3.33;1.80;;;768.60;1459.20;;;;;;4979401;28;20026;-87
2022/07/13 13:24:48;;;;;;;2.60;1.27;;;768.30;1484.80;;;;;;4996789;28;20034;-87
2022/07/13 13:27:14;;;;;;;3.15;1.38;;;768.80;1484.80;;;;;;4979033;28;20474;-86
2022/07/13 13:32:24;;;;;;;3.50;1.50;;;768.90;1484.80;;;;;;5016578;28;20437;-87
2022/07/13 13:34:50;;;;;;;10.07;1.40;;;793.70;1484.80;;;;;;4998992;28;20125;-86
2022/07/13 13:37:17;;;;;;;3.90;1.63;;;794.20;1484.80;;;;;;4997956;28;20381;-87
2022/07/13 13:39:43;;;;;;;7.40;2.00;;;794.50;1484.80;;;;;;4998827;28;20048;-86
2022/07/13 13:42:09;;;;;;;4.45;1.90;;;819.30;1408.00;;;;;;5000318;28;20026;-88
2022/07/13 13:44:35;;;;;;;4.43;2.10;;;819.30;1408.00;;;;;;5000399;28;20029;-85
2022/07/13 13:47:01;;;;;;;7.90;2.17;;;819.40;1408.00;;;;;;5010983;28;20026;-87
2022/07/13 13:49:26;;;;;;;5.85;1.35;;;794.50;1408.00;;;;;;5011113;28;20013;-88
2022/07/13 13:51:52;;;;;;;4.68;1.20;;;793.70;1433.60;;;;;;5009742;28;20093;-86
2022/07/13 13:54:18;;;;;;;5.70;2.10;;;793.70;1408.00;;;;;;5014261;28;20049;-85
2022/07/13 13:56:44;;;;;;;17.65;2.42;;;793.70;1433.60;;;;;;5021360;28;20017;-82
2022/07/13 13:59:10;;;;;;;3.15;0.90;;;768.80;1433.60;;;;;;5021259;28;20022;-82
2022/07/13 14:01:36;;;;;;;3.67;1.77;;;794.00;1433.60;;;;;;5009402;28;20030;-80
2022/07/13 14:04:02;;;;;;;3.42;1.60;;;793.70;1433.60;;;;;;5001029;28;20083;-80
2022/07/13 14:06:28;;;;;;;5.20;1.55;;;768.40;1433.60;;;;;;5001088;28;20462;-81
2022/07/13 14:08:55;;;;;;;4.65;1.60;;;768.40;1433.60;;;;;;5001167;28;20041;-83
2022/07/13 14:11:21;;;;;;;3.28;0.85;;;768.10;1459.20;;;;;;5000067;28;20037;-81
2022/07/13 14:13:47;;;;;;;7.15;1.35;;;743.30;1433.60;;;;;;4999199;28;20026;-81
2022/07/13 14:16:13;;;;;;;5.55;1.65;;;768.10;1433.60;;;;;;4999095;28;20454;-82
2022/07/13 14:18:39;;;;;;;3.00;1.38;;;768.10;1408.00;;;;;;4999623;28;20045;-84
2022/07/13 14:21:05;;;;;;;3.58;1.27;;;768.00;1408.00;;;;;;4999045;28;20462;-85
2022/07/13 14:23:31;;;;;;;3.08;1.10;;;743.30;1433.60;;;;;;4998385;28;20462;-85
2022/07/13 14:25:57;;;;;;;3.25;1.25;;;742.90;1433.60;;;;;;4999011;28;20037;-85
2022/07/13 14:28:23;;;;;;;3.88;1.35;;;742.70;1459.20;;;;;;4998933;28;20466;-83
2022/07/13 14:30:49;;;;;;;4.97;2.70;;;742.50;1433.60;;;;;;4983664;28;20105;-84
2022/07/13 14:33:15;;;;;;;3.22;1.67;;;742.80;1459.20;;;;;;4979446;28;20026;-84
2022/07/13 14:35:41;;;;;;;6.30;1.60;;;743.00;1459.20;;;;;;4979819;28;20117;-84
2022/07/13 14:38:10;;;;;;;3.58;1.30;;;743.00;1408.00;;;;;;4978690;28;20042;-85
2022/07/13 14:40:38;;;;;;;6.03;1.45;;;742.80;1408.00;;;;;;4979404;28;20023;-84
2022/07/13 14:43:04;;;;;;;3.20;1.30;;;743.30;1459.20;;;;;;4979552;28;20033;-84
2022/07/13 14:45:30;;;;;;;4.40;1.77;;;742.80;1433.60;;;;;;4982607;28;20049;-85
2022/07/13 14:47:56;;;;;;;2.15;1.05;;;742.50;1484.80;;;;;;4983504;28;20459;-85
2022/07/13 14:50:22;;;;;;;4.05;1.20;;;717.50;1433.60;;;;;;4981940;28;20023;-83
2022/07/13 14:52:48;;;;;;;2.55;0.95;;;717.60;1459.20;;;;;;4981227;28;20037;-82
2022/07/13 14:55:15;;;;;;;15.40;2.03;;;742.90;1459.20;;;;;;4980890;28;20031;-85
2022/07/13 14:57:42;;;;;;;3.97;1.60;;;743.30;1433.60;;;;;;4981024;28;20081;-82
2022/07/13 15:00:09;;;;;;;6.65;1.95;;;768.40;1408.00;;;;;;4981238;28;20034;-83
2022/07/13 15:02:34;;;;;;;3.17;1.33;;;793.60;1433.60;;;;;;4980790;28;20061;-82
2022/07/13 15:05:05;;;;;;;3.38;1.17;;;793.80;1408.00;;;;;;4980347;28;20455;-81
2022/07/13 15:07:31;;;;;;;3.03;1.00;;;768.70;1408.00;;;;;;4981052;28;20038;-87
2022/07/13 15:09:57;;;;;;;3.47;1.40;;;794.00;1433.60;;;;;;4979974;28;20030;-88
2022/07/13 15:12:23;;;;;;;7.25;1.50;;;794.20;1382.40;;;;;;4980491;28;20367;-86
2022/07/13 15:14:48;;;;;;;4.50;1.45;;;794.20;1433.60;;;;;;4980195;28;20065;-87
2022/07/13 15:17:14;;;;;;;5.72;2.22;;;819.20;1382.40;;;;;;4980089;28;20022;-86
2022/07/13 15:19:40;;;;;;;4.45;1.92;;;794.20;1408.00;;;;;;4979979;28;20035;-87
2022/07/13 15:22:06;;;;;;;12.05;1.98;;;794.20;1408.00;;;;;;4980216;28;20477;-86
2022/07/13 15:24:32;;;;;;;5.10;1.30;;;793.90;1433.60;;;;;;4979752;28;20069;-87
2022/07/13 15:26:58;;;;;;;4.32;1.90;;;793.70;1433.60;;;;;;4980332;28;20030;-87
2022/07/13 15:29:23;;;;;;;3.45;1.85;;;793.80;1433.60;;;;;;4983093;28;20050;-87
2022/07/13 15:31:49;;;;;;;4.70;1.95;;;768.80;1408.00;;;;;;5000045;28;20034;-88
2022/07/13 15:34:15;;;;;;;5.22;2.13;;;768.30;1433.60;;;;;;4999969;28;20036;-88
2022/07/13 15:36:42;;;;;;;5.22;2.92;;;743.10;1459.20;;;;;;4989128;28;20053;-85
2022/07/13 15:39:08;;;;;;;6.30;1.95;;;742.90;1459.20;;;;;;4979853;28;20482;-83
2022/07/13 15:41:33;;;;;;;4.05;1.55;;;742.60;1484.80;;;;;;4980231;28;20026;-85
2022/07/13 15:44:01;;;;;;;4.95;1.70;;;742.50;1484.80;;;;;;4980258;28;20033;-85
2022/07/13 15:46:29;;;;;;;4.05;1.70;;;742.40;1510.40;;;;;;4980145;28;20409;-86
2022/07/13 15:49:00;;;;;;;5.40;1.45;;;742.40;1510.40;;;;;;4980180;28;20030;-86
2022/07/13 15:51:27;;;;;;;4.50;1.65;;;717.50;1510.40;;;;;;4982393;28;20037;-85
2022/07/13 15:53:53;;;;;;;3.00;1.50;;;742.50;1536.00;;;;;;4981825;28;20031;-85
2022/07/13 15:56:19;;;;;;;2.70;1.25;;;717.60;1536.00;;;;;;4994244;28;20108;-86
2022/07/13 15:58:45;;;;;;;4.28;2.13;;;717.50;1510.40;;;;;;4980544;28;20030;-86
2022/07/13 16:01:11;;;;;;;8.50;4.63;;;717.40;1536.00;;;;;;4980220;28;20038;-84
2022/07/13 16:03:37;;;;;;;3.50;2.22;;;717.30;1536.00;;;;;;4979892;28;20089;-87
2022/07/13 16:06:03;;;;;;;4.35;1.63;;;717.20;1510.40;;;;;;4979820;28;20032;-86
2022/07/13 16:08:29;;;;;;;3.35;1.75;;;716.90;1536.00;;;;;;4979983;28;20022;-87
2022/07/13 16:10:55;;;;;;;6.63;4.75;;;717.40;1536.00;;;;;;4980337;28;20018;-87
2022/07/13 16:13:21;;;;;;;4.85;1.90;;;717.00;1561.60;;;;;;4979928;28;20076;-84
2022/07/13 16:15:47;;;;;;;4.82;1.92;;;716.90;1561.60;;;;;;4980429;28;20422;-86
2022/07/13 16:18:13;;;;;;;4.97;2.67;;;716.80;1561.60;;;;;;4979966;28;20022;-85
2022/07/13 16:20:39;;;;;;;8.52;3.20;;;692.10;1536.00;;;;;;4981940;28;20022;-86
2022/07/13 16:23:05;;;;;;;3.88;1.80;;;692.10;1536.00;;;;;;4982372;28;20053;-85
2022/07/13 16:25:31;;;;;;;6.40;2.97;;;692.10;1536.00;;;;;;4981882;28;20027;-87
2022/07/13 16:27:57;;;;;;;4.32;2.28;;;692.00;1536.00;;;;;;4981479;28;20105;-87
2022/07/13 16:30:23;;;;;;;5.63;2.55;;;691.90;1561.60;;;;;;4991829;28;20077;-87
2022/07/13 16:32:49;;;;;;;3.72;2.00;;;691.90;1561.60;;;;;;5001762;28;20458;-87
2022/07/13 16:35:16;;;;;;;3.67;2.20;;;691.80;1561.60;;;;;;5001165;28;20040;-87
2022/07/13 16:37:42;;;;;;;3.08;1.50;;;691.80;1561.60;;;;;;5003552;28;20026;-86
2022/07/13 16:40:08;;;;;;;4.82;2.00;;;691.70;1561.60;;;;;;5002217;28;20088;-86
2022/07/13 16:42:34;;;;;;;3.38;2.33;;;691.30;1587.20;;;;;;5000279;28;20462;-86
2022/07/13 16:44:59;;;;;;;3.92;1.90;;;691.70;1587.20;;;;;;5000878;28;20029;-86
2022/07/13 16:47:26;;;;;;;4.65;2.70;;;691.60;1587.20;;;;;;4999488;28;20038;-87
2022/07/13 16:49:53;;;;;;;6.60;2.20;;;691.60;1587.20;;;;;;4999794;28;20030;-87
2022/07/13 16:52:20;;;;;;;4.97;2.63;;;691.60;1612.80;;;;;;4999031;28;20033;-86
2022/07/13 16:54:47;;;;;;;3.53;2.10;;;691.60;1587.20;;;;;;4998977;28;20037;-87
2022/07/13 16:57:13;;;;;;;5.38;3.10;;;691.60;1587.20;;;;;;4998135;28;20026;-89
2022/07/13 16:59:39;;;;;;;4.45;1.77;;;691.60;1587.20;;;;;;4998206;28;20025;-86
2022/07/13 17:02:05;;;;;;;5.63;2.13;;;691.50;1612.80;;;;;;4997935;28;20053;-86
2022/07/13 17:04:31;;;;;;;6.38;2.38;;;691.40;1587.20;;;;;;4997984;28;20029;-86
2022/07/13 17:07:00;;;;;;;7.15;3.33;;;691.30;1587.20;;;;;;4997563;28;20038;-84
2022/07/13 17:09:26;;;;;;;14.35;2.42;;;691.20;1638.40;;;;;;4998575;28;20032;-86
2022/07/13 17:11:51;;;;;;;5.38;2.33;;;691.20;1638.40;;;;;;4998519;28;20108;-84
2022/07/13 17:14:19;;;;;;;13.18;3.00;;;691.20;1612.80;;;;;;4997690;28;20088;-87
2022/07/13 17:16:45;;;;;;;10.73;2.10;;;666.50;1638.40;;;;;;4997560;28;20548;-85
2022/07/13 17:19:11;;;;;;;4.53;2.50;;;666.40;1638.40;;;;;;4997648;28;20029;-86
2022/07/13 17:21:38;;;;;;;3.42;1.70;;;666.30;1612.80;;;;;;4998727;28;20041;-86
2022/07/13 17:24:05;;;;;;;10.32;2.38;;;666.30;1612.80;;;;;;4998796;28;20030;-84
2022/07/13 17:26:31;;;;;;;9.13;2.45;;;666.30;1638.40;;;;;;4998158;28;20057;-83
2022/07/13 17:28:58;;;;;;;12.73;2.58;;;666.20;1689.60;;;;;;4997581;28;20116;-82
2022/07/13 17:31:24;;;;;;;6.55;2.95;;;666.10;1689.60;;;;;;4997658;28;20061;-84
2022/07/13 17:33:51;;;;;;;11.27;3.13;;;665.80;1740.80;;;;;;4997207;28;20489;-84
2022/07/13 17:36:17;;;;;;;4.97;2.40;;;665.70;1740.80;;;;;;4996880;28;20022;-84
2022/07/13 17:38:43;;;;;;;10.38;2.30;;;640.90;1689.60;;;;;;4998432;28;20034;-85
2022/07/13 17:41:10;;;;;;;7.35;2.80;;;640.70;1740.80;;;;;;4997936;28;20121;-86
2022/07/13 17:43:36;;;;;;;8.98;2.10;;;640.60;1766.40;;;;;;4998557;28;20473;-86
2022/07/13 17:46:03;;;;;;;4.63;1.70;;;640.40;1766.40;;;;;;4998423;28;20057;-86
2022/07/13 17:48:28;;;;;;;4.28;1.83;;;640.50;1766.40;;;;;;4999492;28;20076;-88